Time;durP1;ratioP1;P1;durP2;ratioP2;P2;SDS_P1;SDS_P2;PMS_P1;PMS_P2;Temp;Humidity;BMP_temperature;BMP_pressure;BME280_temperature;BME280_humidity;BME280_pressure;Samples;Min_cycle;Max_cycle;Signal;HPM_P1;HPM_P2
2023/05/13 00:00:35;;;;;;;15.60;11.30;;;10.90;99.90;;;;;;5049697;28;20068;-72
2023/05/13 00:03:01;;;;;;;14.85;11.40;;;10.90;99.90;;;;;;5033274;28;20045;-72
2023/05/13 00:05:27;;;;;;;14.60;11.50;;;10.90;99.90;;;;;;5049384;28;20048;-72
2023/05/13 00:07:52;;;;;;;13.37;11.73;;;10.80;99.90;;;;;;5050999;28;20048;-72
2023/05/13 00:10:19;;;;;;;17.07;12.20;;;10.80;99.90;;;;;;5033721;28;20080;-72
2023/05/13 00:12:45;;;;;;;15.20;12.75;;;10.80;99.90;;;;;;5033655;28;20048;-72
2023/05/13 00:15:11;;;;;;;13.57;11.68;;;10.80;99.90;;;;;;5037657;28;20502;-72
2023/05/13 00:17:36;;;;;;;17.07;12.00;;;10.80;99.90;;;;;;5034031;28;20076;-72
2023/05/13 00:20:03;;;;;;;17.07;11.20;;;10.80;99.90;;;;;;5033643;28;20084;-72
2023/05/13 00:22:29;;;;;;;14.65;11.43;;;10.80;99.90;;;;;;5043069;28;20099;-72
2023/05/13 00:24:55;;;;;;;14.07;11.55;;;10.70;99.90;;;;;;5050041;28;20552;-72
2023/05/13 00:27:21;;;;;;;14.63;11.43;;;10.70;99.90;;;;;;5041669;28;20089;-72
2023/05/13 00:29:46;;;;;;;16.27;11.77;;;10.70;99.90;;;;;;5045560;28;20069;-72
2023/05/13 00:32:12;;;;;;;15.10;12.20;;;10.70;99.90;;;;;;5050564;28;20041;-72
2023/05/13 00:34:37;;;;;;;16.33;12.70;;;10.70;99.90;;;;;;5039645;28;20067;-72
2023/05/13 00:37:03;;;;;;;15.83;12.40;;;10.70;99.90;;;;;;5025893;28;20045;-72
2023/05/13 00:39:29;;;;;;;20.80;12.70;;;10.60;99.90;;;;;;5031615;28;20036;-72
2023/05/13 00:41:55;;;;;;;14.73;11.60;;;10.60;99.90;;;;;;5025472;28;20044;-72
2023/05/13 00:44:20;;;;;;;15.07;12.40;;;10.70;99.90;;;;;;5040765;28;20041;-72
2023/05/13 00:46:46;;;;;;;14.93;12.90;;;10.70;99.90;;;;;;5025851;28;20112;-72
2023/05/13 00:49:12;;;;;;;18.30;12.07;;;10.60;99.90;;;;;;5045643;28;20500;-72
2023/05/13 00:51:38;;;;;;;16.30;13.47;;;10.60;99.90;;;;;;5031083;28;20056;-71
2023/05/13 00:54:04;;;;;;;15.33;13.00;;;10.60;99.90;;;;;;5032156;28;20076;-71
2023/05/13 00:56:30;;;;;;;17.90;12.90;;;10.60;99.90;;;;;;5049495;28;20107;-71
2023/05/13 00:58:55;;;;;;;16.37;14.00;;;10.50;99.90;;;;;;5048667;28;20036;-72
2023/05/13 01:01:37;;;;;;;17.13;14.43;;;10.50;99.90;;;;;;5042826;28;20122;-72
2023/05/13 01:04:18;;;;;;;17.15;13.23;;;10.50;99.90;;;;;;5047517;28;20085;-72
2023/05/13 01:06:48;;;;;;;17.52;14.25;;;10.50;99.90;;;;;;5027934;28;20065;-72
2023/05/13 01:09:53;;;;;;;15.20;13.30;;;10.50;99.90;;;;;;5033015;28;20045;-72
2023/05/13 01:12:32;;;;;;;16.92;13.98;;;10.50;99.90;;;;;;5032952;28;20037;-72
2023/05/13 01:15:20;;;;;;;20.25;14.98;;;10.50;99.90;;;;;;5045319;28;20463;-72
2023/05/13 01:18:03;;;;;;;17.63;14.20;;;10.40;99.90;;;;;;5037918;28;20493;-72
2023/05/13 01:20:30;;;;;;;16.67;14.48;;;10.40;99.90;;;;;;5042829;28;20517;-72
2023/05/13 01:22:56;;;;;;;15.68;13.95;;;10.40;99.90;;;;;;5020933;28;20052;-72
2023/05/13 01:25:22;;;;;;;15.40;13.70;;;10.40;99.90;;;;;;5046508;28;20045;-72
2023/05/13 01:27:49;;;;;;;18.48;14.35;;;10.40;99.90;;;;;;5047270;28;20066;-72
2023/05/13 01:30:15;;;;;;;20.83;14.32;;;10.30;99.90;;;;;;5030175;28;20045;-72
2023/05/13 01:32:42;;;;;;;18.63;14.30;;;10.30;99.90;;;;;;5038958;28;20068;-72
2023/05/13 01:35:09;;;;;;;18.95;14.20;;;10.30;99.90;;;;;;5045996;28;20041;-72
2023/05/13 01:37:36;;;;;;;16.10;14.10;;;10.20;99.90;;;;;;5044477;28;20044;-72
2023/05/13 01:40:04;;;;;;;17.02;13.73;;;10.20;99.90;;;;;;5043518;28;20568;-72
2023/05/13 01:42:31;;;;;;;16.05;13.43;;;10.20;99.90;;;;;;5046061;28;20056;-72
2023/05/13 01:44:57;;;;;;;16.88;14.23;;;10.20;99.90;;;;;;5048025;28;20049;-72
2023/05/13 01:47:23;;;;;;;16.67;13.57;;;10.20;99.90;;;;;;5021845;28;20453;-72
2023/05/13 01:49:48;;;;;;;16.47;12.67;;;10.20;99.90;;;;;;5048667;28;20498;-72
2023/05/13 01:52:14;;;;;;;17.37;13.73;;;10.20;99.90;;;;;;5046162;28;20041;-72
2023/05/13 01:54:40;;;;;;;16.20;13.10;;;10.20;99.90;;;;;;5029186;28;20137;-72
2023/05/13 01:57:05;;;;;;;15.67;13.47;;;10.20;99.90;;;;;;5029168;28;20040;-72
2023/05/13 01:59:31;;;;;;;15.57;13.27;;;10.20;99.90;;;;;;5029467;28;20126;-72
2023/05/13 02:01:57;;;;;;;18.50;13.70;;;10.20;99.90;;;;;;5045727;28;20055;-72
2023/05/13 02:04:22;;;;;;;16.53;13.83;;;10.10;99.90;;;;;;5023289;28;20052;-72
2023/05/13 02:06:48;;;;;;;20.03;13.87;;;10.10;99.90;;;;;;5022353;28;20660;-72
2023/05/13 02:09:14;;;;;;;16.57;12.97;;;10.10;99.90;;;;;;5045421;28;20420;-72
2023/05/13 02:11:40;;;;;;;17.93;13.10;;;10.10;99.90;;;;;;5045774;28;20114;-72
2023/05/13 02:14:05;;;;;;;17.87;13.57;;;10.10;99.90;;;;;;5045554;28;20068;-72
2023/05/13 02:16:31;;;;;;;16.23;13.03;;;10.10;99.90;;;;;;5030814;28;20337;-72
2023/05/13 02:18:57;;;;;;;16.30;13.03;;;10.00;99.90;;;;;;5031152;28;20469;-72
2023/05/13 02:21:23;;;;;;;16.60;12.97;;;10.00;99.90;;;;;;5047881;28;20041;-72
2023/05/13 02:23:48;;;;;;;19.63;13.23;;;10.00;99.90;;;;;;5047959;28;20068;-72
2023/05/13 02:26:14;;;;;;;20.57;13.20;;;9.90;99.90;;;;;;5030412;28;20041;-72
2023/05/13 02:28:40;;;;;;;17.17;13.80;;;10.00;99.90;;;;;;5019320;28;20072;-72
2023/05/13 02:31:06;;;;;;;17.63;13.80;;;9.90;99.90;;;;;;5047521;28;20080;-72
2023/05/13 02:33:32;;;;;;;20.15;14.30;;;9.90;99.90;;;;;;5043000;28;20110;-72
2023/05/13 02:35:57;;;;;;;18.50;13.00;;;9.90;99.90;;;;;;5039086;28;20048;-72
2023/05/13 02:38:23;;;;;;;15.53;13.47;;;9.90;99.90;;;;;;5030786;28;20785;-72
2023/05/13 02:40:49;;;;;;;19.83;13.80;;;9.90;99.90;;;;;;5031394;28;20080;-72
2023/05/13 02:43:15;;;;;;;17.73;13.40;;;9.90;99.90;;;;;;5031126;28;20048;-72
2023/05/13 02:45:40;;;;;;;15.83;13.43;;;9.80;99.90;;;;;;5027658;28;20155;-72
2023/05/13 02:48:06;;;;;;;18.27;13.20;;;9.80;99.90;;;;;;5030783;28;20083;-72
2023/05/13 02:50:32;;;;;;;16.60;13.10;;;9.80;99.90;;;;;;5047663;28;20319;-72
2023/05/13 02:52:58;;;;;;;16.47;13.73;;;9.80;99.90;;;;;;5025844;28;20110;-72
2023/05/13 02:55:23;;;;;;;22.70;13.73;;;9.80;99.90;;;;;;5042829;28;20051;-72
2023/05/13 02:57:49;;;;;;;17.90;13.63;;;9.80;99.90;;;;;;5030450;28;20401;-72
2023/05/13 03:00:15;;;;;;;19.40;13.60;;;9.80;99.90;;;;;;5021500;28;20054;-72
2023/05/13 03:02:41;;;;;;;19.23;14.07;;;9.70;99.90;;;;;;5047360;28;20052;-72
2023/05/13 03:05:07;;;;;;;17.60;13.87;;;9.70;99.90;;;;;;5037842;28;20124;-72
2023/05/13 03:07:33;;;;;;;18.17;14.40;;;9.70;99.90;;;;;;5030919;28;20691;-72
2023/05/13 03:09:58;;;;;;;16.93;13.83;;;9.70;99.90;;;;;;5020941;28;20041;-72
2023/05/13 03:12:24;;;;;;;18.30;15.13;;;9.70;99.90;;;;;;5047139;28;20083;-72
2023/05/13 03:14:50;;;;;;;20.93;16.87;;;9.70;99.90;;;;;;5027508;28;20037;-72
2023/05/13 03:17:16;;;;;;;18.23;16.23;;;9.70;99.90;;;;;;5029391;28;20076;-72
2023/05/13 03:19:42;;;;;;;18.83;16.13;;;9.70;99.90;;;;;;5046254;28;20505;-72
2023/05/13 03:22:08;;;;;;;20.13;15.23;;;9.70;99.90;;;;;;5022847;28;20349;-72
2023/05/13 03:24:33;;;;;;;16.60;14.80;;;9.70;99.90;;;;;;5023499;28;20048;-72
2023/05/13 03:27:00;;;;;;;20.63;15.23;;;9.70;99.90;;;;;;5037396;28;20549;-72
2023/05/13 03:29:25;;;;;;;18.98;15.27;;;9.70;99.90;;;;;;5043726;28;20413;-72
2023/05/13 03:31:52;;;;;;;21.70;14.87;;;9.70;99.90;;;;;;5030167;28;20041;-72
2023/05/13 03:34:18;;;;;;;17.00;14.95;;;9.70;99.90;;;;;;5030087;28;20040;-72
2023/05/13 03:36:43;;;;;;;18.63;14.27;;;9.70;99.90;;;;;;5029903;28;20049;-72
2023/05/13 03:39:09;;;;;;;16.90;14.43;;;9.70;99.90;;;;;;5041485;28;20048;-72
2023/05/13 03:41:35;;;;;;;17.80;13.43;;;9.70;99.90;;;;;;5040406;28;20037;-70
2023/05/13 03:44:01;;;;;;;16.87;13.47;;;9.70;99.90;;;;;;5040219;28;20044;-70
2023/05/13 03:46:27;;;;;;;17.57;13.50;;;9.70;99.90;;;;;;5016921;28;20049;-70
2023/05/13 03:48:56;;;;;;;17.25;13.55;;;9.70;99.90;;;;;;5041469;28;20119;-70
2023/05/13 03:51:21;;;;;;;15.70;13.73;;;9.80;99.90;;;;;;5027225;28;20178;-70
2023/05/13 03:53:47;;;;;;;16.57;13.67;;;9.80;99.90;;;;;;5029764;28;20145;-70
2023/05/13 03:56:14;;;;;;;16.00;14.10;;;9.80;99.90;;;;;;5047221;28;20620;-71
2023/05/13 03:58:40;;;;;;;18.50;14.73;;;9.80;99.90;;;;;;5044430;28;20083;-70
2023/05/13 04:01:08;;;;;;;17.20;14.02;;;9.80;99.90;;;;;;5025655;28;20689;-70
2023/05/13 04:03:34;;;;;;;20.00;14.35;;;9.80;99.90;;;;;;5037248;28;20040;-70
2023/05/13 04:06:00;;;;;;;17.97;14.50;;;9.90;99.90;;;;;;5038565;28;20041;-70
2023/05/13 04:08:26;;;;;;;21.83;14.40;;;9.90;99.90;;;;;;5041049;28;20036;-70
2023/05/13 04:10:52;;;;;;;18.85;14.75;;;9.90;99.90;;;;;;5039080;28;20037;-71
2023/05/13 04:13:18;;;;;;;19.67;14.63;;;9.90;99.90;;;;;;5036963;28;20451;-71
2023/05/13 04:15:44;;;;;;;19.10;15.20;;;9.90;99.90;;;;;;5040924;28;20060;-71
2023/05/13 04:18:10;;;;;;;21.00;15.90;;;10.00;99.90;;;;;;5046859;28;20045;-70
2023/05/13 04:20:39;;;;;;;20.80;15.37;;;10.10;99.90;;;;;;5041051;28;20057;-70
2023/05/13 04:23:05;;;;;;;20.48;15.73;;;10.10;99.90;;;;;;5045938;28;20045;-70
2023/05/13 04:25:31;;;;;;;24.67;16.23;;;10.20;99.90;;;;;;5037391;28;20037;-70
2023/05/13 04:27:57;;;;;;;25.70;16.13;;;10.20;99.90;;;;;;5039962;28;20033;-70
2023/05/13 04:30:23;;;;;;;20.63;15.93;;;10.30;99.90;;;;;;5025741;28;20100;-70
2023/05/13 04:32:48;;;;;;;20.87;15.70;;;10.30;99.90;;;;;;5030235;28;20114;-70
2023/05/13 04:35:14;;;;;;;22.37;16.03;;;10.30;99.90;;;;;;5033446;28;20049;-70
2023/05/13 04:37:40;;;;;;;22.73;16.23;;;10.30;99.90;;;;;;5050153;28;20051;-71
2023/05/13 04:40:09;;;;;;;22.53;16.57;;;10.40;99.90;;;;;;5045359;28;20048;-71
2023/05/13 04:42:34;;;;;;;22.15;16.00;;;10.40;99.90;;;;;;5026436;28;20049;-71
2023/05/13 04:45:00;;;;;;;19.00;15.47;;;10.50;99.90;;;;;;5040758;28;20083;-71
2023/05/13 04:47:26;;;;;;;19.53;15.10;;;10.50;99.90;;;;;;5033122;28;20041;-71
2023/05/13 04:49:52;;;;;;;18.33;14.77;;;10.50;99.90;;;;;;5039997;28;20034;-71
2023/05/13 04:52:18;;;;;;;18.73;13.53;;;10.60;99.90;;;;;;5047612;28;20461;-71
2023/05/13 04:54:44;;;;;;;18.27;13.55;;;10.70;99.90;;;;;;5042976;28;20084;-71
2023/05/13 04:57:10;;;;;;;18.43;14.27;;;10.90;99.90;;;;;;5043417;28;20044;-71
2023/05/13 04:59:35;;;;;;;14.67;12.43;;;11.10;99.90;;;;;;5026248;28;20089;-72
2023/05/13 05:02:01;;;;;;;25.27;11.97;;;11.20;99.90;;;;;;5030143;28;20048;-71
2023/05/13 05:04:27;;;;;;;16.07;12.10;;;11.40;99.90;;;;;;5032609;28;20080;-71
2023/05/13 05:06:53;;;;;;;14.80;11.40;;;11.50;99.90;;;;;;5049825;28;20888;-72
2023/05/13 05:09:19;;;;;;;14.50;11.10;;;11.80;99.90;;;;;;5043370;28;20037;-71
2023/05/13 05:11:44;;;;;;;11.90;10.67;;;12.40;99.90;;;;;;5046433;28;20544;-71
2023/05/13 05:14:10;;;;;;;12.47;10.17;;;12.90;99.90;;;;;;5049523;28;20041;-71
2023/05/13 05:16:36;;;;;;;12.83;9.73;;;13.00;99.90;;;;;;5024590;28;20037;-71
2023/05/13 05:19:01;;;;;;;13.23;9.37;;;12.90;99.90;;;;;;5042614;28;20033;-71
2023/05/13 05:21:27;;;;;;;14.33;9.63;;;12.90;99.90;;;;;;5047517;28;20557;-71
2023/05/13 05:23:53;;;;;;;11.70;9.10;;;12.90;99.90;;;;;;5023842;28;20029;-71
2023/05/13 05:26:19;;;;;;;12.97;9.20;;;12.80;99.90;;;;;;5048288;28;20053;-71
2023/05/13 05:28:45;;;;;;;9.13;8.23;;;12.80;99.90;;;;;;5023803;28;20047;-71
2023/05/13 05:31:11;;;;;;;12.93;9.33;;;12.70;99.90;;;;;;5036949;28;20283;-71
2023/05/13 05:33:39;;;;;;;13.07;8.90;;;12.70;99.90;;;;;;5032479;28;20349;-71
2023/05/13 05:36:05;;;;;;;9.07;7.67;;;12.70;99.90;;;;;;5048882;28;20052;-71
2023/05/13 05:38:30;;;;;;;9.23;7.90;;;12.80;99.90;;;;;;5040892;28;20308;-71
2023/05/13 05:40:56;;;;;;;12.23;8.60;;;12.80;99.90;;;;;;5027715;28;20318;-71
2023/05/13 05:43:22;;;;;;;11.37;8.23;;;12.90;99.90;;;;;;5039997;28;20450;-71
2023/05/13 05:45:47;;;;;;;11.67;8.47;;;12.80;99.90;;;;;;5030786;28;20143;-71
2023/05/13 05:48:13;;;;;;;11.60;7.53;;;12.90;99.90;;;;;;5048826;28;20036;-71
2023/05/13 05:50:40;;;;;;;11.50;8.60;;;12.90;99.90;;;;;;5030758;28;20041;-71
2023/05/13 05:53:06;;;;;;;12.07;7.47;;;12.90;99.90;;;;;;5046271;28;20635;-71
2023/05/13 05:55:31;;;;;;;10.27;7.03;;;13.00;99.90;;;;;;5038047;28;20276;-71
2023/05/13 05:58:02;;;;;;;9.57;7.47;;;13.00;99.90;;;;;;5046800;28;20048;-71
2023/05/13 06:00:28;;;;;;;9.87;7.70;;;13.10;99.90;;;;;;5022987;28;20361;-71
2023/05/13 06:02:55;;;;;;;13.80;7.47;;;13.10;99.90;;;;;;5046156;28;20750;-72
2023/05/13 06:05:21;;;;;;;9.33;7.37;;;13.20;99.90;;;;;;5045876;28;20357;-71
2023/05/13 06:07:47;;;;;;;10.33;7.33;;;13.30;99.90;;;;;;5026668;28;20633;-71
2023/05/13 06:10:13;;;;;;;12.83;8.10;;;13.40;99.90;;;;;;5047844;28;20032;-71
2023/05/13 06:12:40;;;;;;;9.50;6.80;;;13.60;99.90;;;;;;5031323;28;20044;-71
2023/05/13 06:15:09;;;;;;;11.27;7.27;;;13.80;99.90;;;;;;5035387;28;20160;-71
2023/05/13 06:17:35;;;;;;;11.00;7.60;;;13.90;99.90;;;;;;5028868;28;20687;-72
2023/05/13 06:20:01;;;;;;;9.67;6.80;;;14.00;99.90;;;;;;5044653;28;20315;-72
2023/05/13 06:22:27;;;;;;;10.87;7.13;;;14.20;99.90;;;;;;5017271;28;20815;-71
2023/05/13 06:24:53;;;;;;;9.80;7.17;;;14.70;99.90;;;;;;5045215;28;20077;-71
2023/05/13 06:27:18;;;;;;;9.20;6.20;;;15.00;99.90;;;;;;5040669;28;20092;-71
2023/05/13 06:29:44;;;;;;;7.90;6.87;;;15.30;99.90;;;;;;5043941;28;20456;-71
2023/05/13 06:32:09;;;;;;;9.20;6.40;;;15.80;99.90;;;;;;5048235;28;20143;-71
2023/05/13 06:34:37;;;;;;;9.57;6.80;;;16.40;99.90;;;;;;5027071;28;20045;-71
2023/05/13 06:37:02;;;;;;;10.43;6.57;;;17.00;97.40;;;;;;5039815;28;20099;-71
2023/05/13 06:39:28;;;;;;;8.27;6.50;;;17.50;94.30;;;;;;5045788;28;20276;-71
2023/05/13 06:41:54;;;;;;;8.90;5.67;;;17.90;91.50;;;;;;5028457;28;20452;-71
2023/05/13 06:44:20;;;;;;;10.90;6.20;;;18.20;90.40;;;;;;5018911;28;20131;-71
2023/05/13 06:46:45;;;;;;;8.67;6.10;;;18.40;87.90;;;;;;5030698;28;20037;-71
2023/05/13 06:49:11;;;;;;;7.50;5.53;;;18.40;87.90;;;;;;5030904;28;20055;-71
2023/05/13 06:51:37;;;;;;;11.40;6.30;;;18.40;87.20;;;;;;5045235;28;20414;-71
2023/05/13 06:54:02;;;;;;;13.10;6.13;;;18.30;86.70;;;;;;5040494;28;20080;-71
2023/05/13 06:56:29;;;;;;;9.53;5.40;;;18.20;86.20;;;;;;5021877;28;20071;-71
2023/05/13 06:58:55;;;;;;;6.87;5.40;;;18.10;87.50;;;;;;5029334;28;20120;-71
2023/05/13 07:01:20;;;;;;;9.27;5.60;;;18.00;88.00;;;;;;5013653;28;20300;-71
2023/05/13 07:03:47;;;;;;;8.97;5.53;;;17.60;88.60;;;;;;5021980;28;20161;-71
2023/05/13 07:06:13;;;;;;;10.60;6.00;;;17.20;90.80;;;;;;5026445;28;20229;-71
2023/05/13 07:08:39;;;;;;;7.93;5.50;;;16.80;93.00;;;;;;5047032;28;20362;-71
2023/05/13 07:11:05;;;;;;;7.87;5.47;;;16.60;94.00;;;;;;5031125;28;20146;-72
2023/05/13 07:13:33;;;;;;;11.10;5.77;;;16.40;94.90;;;;;;5028647;28;20315;-71
2023/05/13 07:15:59;;;;;;;8.23;5.40;;;16.30;94.00;;;;;;5030987;28;20491;-71
2023/05/13 07:18:25;;;;;;;8.50;5.47;;;16.20;94.60;;;;;;5030901;28;20628;-71
2023/05/13 07:20:51;;;;;;;7.57;5.83;;;16.20;94.50;;;;;;5030741;28;20283;-72
2023/05/13 07:23:17;;;;;;;8.90;5.43;;;16.20;95.20;;;;;;5044988;28;20218;-71
2023/05/13 07:25:42;;;;;;;7.83;5.53;;;16.20;95.00;;;;;;5018849;28;20126;-72
2023/05/13 07:28:08;;;;;;;8.63;5.43;;;16.20;95.10;;;;;;5022661;28;20048;-72
2023/05/13 07:30:34;;;;;;;6.90;5.10;;;16.30;95.10;;;;;;5023003;28;20033;-71
2023/05/13 07:33:00;;;;;;;7.37;5.27;;;16.30;93.90;;;;;;5045720;28;20041;-71
2023/05/13 07:35:25;;;;;;;7.57;5.13;;;16.40;94.10;;;;;;5025437;28;20420;-71
2023/05/13 07:37:51;;;;;;;9.30;5.40;;;16.50;94.70;;;;;;5045839;28;20072;-71
2023/05/13 07:40:18;;;;;;;7.43;5.23;;;16.60;94.30;;;;;;5023259;28;20383;-71
2023/05/13 07:42:44;;;;;;;6.43;5.07;;;16.70;93.10;;;;;;5029920;28;20040;-71
2023/05/13 07:45:10;;;;;;;6.10;5.03;;;16.80;93.20;;;;;;5025955;28;20841;-71
2023/05/13 07:47:36;;;;;;;8.73;4.70;;;16.90;92.00;;;;;;5027543;28;20039;-71
2023/05/13 07:50:01;;;;;;;8.57;5.23;;;16.90;91.00;;;;;;5023009;28;20101;-71
2023/05/13 07:52:27;;;;;;;9.43;5.00;;;17.00;90.20;;;;;;5028519;28;20096;-71
2023/05/13 07:54:53;;;;;;;7.60;5.00;;;17.10;90.50;;;;;;5022319;28;20036;-72
2023/05/13 07:57:19;;;;;;;7.37;4.53;;;17.10;88.50;;;;;;5029203;28;20509;-72
2023/05/13 07:59:45;;;;;;;7.80;5.87;;;17.10;88.30;;;;;;5046589;28;20378;-72
2023/05/13 08:02:11;;;;;;;12.40;5.43;;;17.10;89.30;;;;;;5047571;28;20528;-72
2023/05/13 08:04:37;;;;;;;7.40;4.97;;;17.20;88.70;;;;;;5038496;28;20414;-72
2023/05/13 08:07:03;;;;;;;9.60;4.90;;;17.30;88.70;;;;;;5049075;28;20275;-72
2023/05/13 08:09:29;;;;;;;8.13;4.60;;;17.30;86.80;;;;;;5048747;28;20052;-72
2023/05/13 08:11:55;;;;;;;9.10;4.93;;;17.40;83.20;;;;;;5049822;28;20276;-72
2023/05/13 08:14:20;;;;;;;9.63;4.97;;;17.40;81.10;;;;;;5032665;28;20481;-72
2023/05/13 08:16:46;;;;;;;8.43;4.80;;;17.40;81.50;;;;;;5026274;28;20040;-72
2023/05/13 08:19:13;;;;;;;9.27;5.40;;;17.40;80.90;;;;;;5050520;28;20293;-72
2023/05/13 08:21:39;;;;;;;8.20;4.70;;;17.50;82.00;;;;;;5049115;28;20029;-72
2023/05/13 08:24:05;;;;;;;7.37;4.70;;;17.60;82.70;;;;;;5030292;28;20357;-72
2023/05/13 08:26:31;;;;;;;10.23;5.10;;;17.70;82.50;;;;;;5042390;28;20049;-72
2023/05/13 08:28:57;;;;;;;8.47;5.40;;;17.80;80.50;;;;;;5042367;28;20053;-72
2023/05/13 08:31:26;;;;;;;7.97;5.13;;;17.90;81.50;;;;;;5044439;28;20292;-72
2023/05/13 08:33:55;;;;;;;8.97;4.63;;;17.90;78.90;;;;;;5046417;28;20045;-72
2023/05/13 08:36:21;;;;;;;8.80;5.50;;;18.00;79.30;;;;;;5023811;28;20345;-72
2023/05/13 08:38:47;;;;;;;8.67;4.87;;;18.00;79.00;;;;;;5041589;28;20798;-72
2023/05/13 08:41:14;;;;;;;9.20;5.03;;;18.10;78.50;;;;;;5027967;28;20279;-72
2023/05/13 08:43:43;;;;;;;10.87;6.00;;;18.10;79.70;;;;;;5041028;28;20036;-72
2023/05/13 08:46:10;;;;;;;7.47;5.13;;;18.20;79.80;;;;;;5036896;28;20496;-72
2023/05/13 08:48:38;;;;;;;10.80;5.10;;;18.20;80.00;;;;;;5036199;28;20751;-72
2023/05/13 08:51:04;;;;;;;9.70;4.80;;;18.30;80.10;;;;;;5031367;28;20280;-72
2023/05/13 08:53:30;;;;;;;7.27;4.77;;;18.40;79.70;;;;;;5029728;28;20928;-72
2023/05/13 08:55:57;;;;;;;12.07;5.20;;;18.50;78.10;;;;;;5021050;28;20286;-72
2023/05/13 08:58:24;;;;;;;8.87;5.40;;;18.50;78.00;;;;;;5048160;28;20284;-72
2023/05/13 09:00:51;;;;;;;10.10;4.93;;;18.70;80.30;;;;;;5042360;28;20339;-72
2023/05/13 09:03:18;;;;;;;7.43;4.73;;;18.80;79.20;;;;;;5047358;28;20881;-72
2023/05/13 09:05:44;;;;;;;9.30;5.13;;;18.90;77.70;;;;;;5037133;28;20297;-72
2023/05/13 09:08:10;;;;;;;9.13;5.00;;;18.90;77.50;;;;;;5047244;28;20410;-72
2023/05/13 09:10:36;;;;;;;9.73;5.40;;;19.00;77.00;;;;;;5047721;28;20856;-72
2023/05/13 09:13:03;;;;;;;9.23;5.30;;;19.10;77.20;;;;;;5029313;28;20045;-72
2023/05/13 09:15:30;;;;;;;7.23;4.93;;;19.10;76.20;;;;;;5019612;28;20295;-72
2023/05/13 09:18:00;;;;;;;8.50;5.43;;;19.10;75.70;;;;;;5032530;28;20303;-73
2023/05/13 09:20:25;;;;;;;8.63;4.93;;;19.20;75.70;;;;;;5046560;28;20811;-72
2023/05/13 09:22:57;;;;;;;8.47;4.77;;;19.20;76.10;;;;;;5048957;28;20286;-72
2023/05/13 09:25:24;;;;;;;10.43;5.57;;;19.20;74.10;;;;;;5046968;28;20476;-72
2023/05/13 09:27:57;;;;;;;9.37;5.90;;;19.20;74.70;;;;;;5030947;28;20283;-72
2023/05/13 09:30:27;;;;;;;9.20;5.30;;;19.20;75.60;;;;;;5024049;28;20286;-72
2023/05/13 09:33:12;;;;;;;8.87;5.40;;;19.30;74.70;;;;;;5049056;28;20384;-72
2023/05/13 09:35:43;;;;;;;8.63;5.28;;;19.40;74.70;;;;;;5045627;28;20310;-72
2023/05/13 09:38:14;;;;;;;9.47;5.43;;;19.40;74.40;;;;;;5044500;28;20112;-72
2023/05/13 09:40:40;;;;;;;10.37;5.40;;;19.40;73.60;;;;;;5043403;28;20287;-72
2023/05/13 09:43:07;;;;;;;9.67;4.90;;;19.50;75.00;;;;;;5049232;28;20802;-72
2023/05/13 09:45:34;;;;;;;8.70;4.93;;;19.60;74.10;;;;;;5029375;28;20055;-72
2023/05/13 09:47:59;;;;;;;9.90;5.30;;;19.60;73.80;;;;;;5041532;28;20493;-72
2023/05/13 09:50:26;;;;;;;8.60;4.97;;;19.70;73.10;;;;;;5046717;28;20045;-72
2023/05/13 09:52:52;;;;;;;9.53;5.73;;;19.70;74.10;;;;;;5032464;28;20043;-72
2023/05/13 09:55:17;;;;;;;7.77;5.20;;;19.80;73.10;;;;;;5023216;28;20406;-72
2023/05/13 09:57:44;;;;;;;8.23;5.70;;;19.80;72.90;;;;;;5040848;28;20055;-72
2023/05/13 10:00:10;;;;;;;12.50;5.83;;;19.80;71.90;;;;;;5032000;28;20091;-72
2023/05/13 10:02:37;;;;;;;10.60;5.23;;;19.80;72.20;;;;;;5040086;28;20148;-72
2023/05/13 10:05:06;;;;;;;9.10;5.03;;;19.80;73.80;;;;;;5048168;28;20044;-72
2023/05/13 10:07:33;;;;;;;13.17;5.53;;;19.90;74.60;;;;;;5027624;28;20041;-73
2023/05/13 10:10:01;;;;;;;9.27;6.17;;;19.90;73.10;;;;;;5045434;28;20043;-72
2023/05/13 10:12:29;;;;;;;9.23;5.60;;;20.00;73.80;;;;;;5017582;28;20072;-72
2023/05/13 10:14:55;;;;;;;8.20;5.37;;;20.00;73.30;;;;;;5023292;28;20041;-72
2023/05/13 10:17:23;;;;;;;9.73;5.93;;;20.10;70.20;;;;;;5041892;28;20041;-73
2023/05/13 10:19:51;;;;;;;8.57;6.27;;;20.20;69.60;;;;;;5026503;28;20110;-72
2023/05/13 10:22:26;;;;;;;7.17;5.10;;;20.20;68.60;;;;;;5048539;28;20055;-72
2023/05/13 10:24:54;;;;;;;9.97;5.30;;;20.20;69.50;;;;;;5043002;28;20060;-72
2023/05/13 10:27:21;;;;;;;9.33;5.40;;;20.30;68.40;;;;;;5024943;28;20442;-72
2023/05/13 10:29:48;;;;;;;10.23;6.20;;;20.30;68.40;;;;;;5030710;28;20041;-72
2023/05/13 10:32:14;;;;;;;12.43;6.10;;;20.30;67.70;;;;;;5027126;28;20492;-72
2023/05/13 10:34:41;;;;;;;9.77;5.97;;;20.30;67.90;;;;;;5027132;28;20033;-72
2023/05/13 10:37:45;;;;;;;12.70;6.10;;;20.30;67.50;;;;;;5032672;28;20049;-73
2023/05/13 10:40:17;;;;;;;9.97;6.60;;;20.30;66.70;;;;;;5016310;28;20057;-73
2023/05/13 10:43:12;;;;;;;11.93;6.33;;;20.30;66.30;;;;;;5032896;28;20047;-72
2023/05/13 10:45:37;;;;;;;10.03;6.13;;;20.30;67.20;;;;;;5028457;28;20472;-72
2023/05/13 10:48:10;;;;;;;11.50;5.90;;;20.30;67.10;;;;;;5029281;28;20033;-73
2023/05/13 10:50:40;;;;;;;9.30;5.90;;;20.40;67.10;;;;;;5030604;28;20041;-72
2023/05/13 10:53:16;;;;;;;8.10;6.23;;;20.50;67.50;;;;;;5030539;28;21039;-73
2023/05/13 10:55:45;;;;;;;9.03;6.13;;;20.50;66.40;;;;;;5047156;28;20045;-73
2023/05/13 10:58:15;;;;;;;9.73;6.30;;;20.50;65.10;;;;;;5047518;28;20049;-73
2023/05/13 11:00:43;;;;;;;8.87;5.27;;;20.50;66.30;;;;;;5044278;28;20063;-73
2023/05/13 11:03:14;;;;;;;7.77;5.67;;;20.60;65.20;;;;;;5047615;28;20045;-73
2023/05/13 11:05:43;;;;;;;6.77;5.27;;;20.50;64.50;;;;;;5019022;28;20084;-73
2023/05/13 11:08:09;;;;;;;7.33;5.73;;;20.60;64.50;;;;;;5021723;28;20119;-75
2023/05/13 11:10:35;;;;;;;11.40;6.10;;;20.60;64.00;;;;;;5027334;28;20033;-73
2023/05/13 11:13:12;;;;;;;11.97;6.77;;;20.60;64.10;;;;;;5046921;28;20518;-73
2023/05/13 11:15:51;;;;;;;7.33;5.63;;;20.60;63.70;;;;;;5030897;28;20053;-73
2023/05/13 11:18:19;;;;;;;10.17;6.00;;;20.70;64.00;;;;;;5030967;28;20045;-73
2023/05/13 11:20:55;;;;;;;7.97;5.20;;;20.80;64.50;;;;;;5023274;28;20475;-73
2023/05/13 11:23:21;;;;;;;8.73;5.40;;;20.90;63.80;;;;;;5035181;28;20053;-73
2023/05/13 11:26:15;;;;;;;7.03;5.17;;;20.90;63.70;;;;;;5047045;28;20076;-73
2023/05/13 11:28:58;;;;;;;9.57;5.33;;;21.00;60.70;;;;;;5034441;28;20056;-73
2023/05/13 11:31:26;;;;;;;8.73;5.53;;;21.10;62.30;;;;;;5026815;28;20357;-73
2023/05/13 11:34:15;;;;;;;7.13;5.43;;;21.10;61.20;;;;;;5046415;28;20036;-73
2023/05/13 11:36:46;;;;;;;10.07;5.70;;;21.10;60.80;;;;;;5036730;28;20048;-73
2023/05/13 11:39:14;;;;;;;10.60;4.90;;;21.20;61.50;;;;;;5050382;28;20078;-72
2023/05/13 11:41:48;;;;;;;10.13;5.47;;;21.20;59.60;;;;;;5032734;28;20116;-72
2023/05/13 11:44:19;;;;;;;7.70;5.97;;;21.10;60.10;;;;;;5031091;28;20053;-72
2023/05/13 11:46:59;;;;;;;7.87;4.67;;;21.10;60.80;;;;;;5031486;28;20056;-73
2023/05/13 11:49:37;;;;;;;11.27;5.50;;;21.20;60.20;;;;;;5035052;28;20040;-73
2023/05/13 11:52:14;;;;;;;9.53;5.97;;;21.20;60.30;;;;;;5030422;28;20037;-73
2023/05/13 11:54:52;;;;;;;11.30;5.90;;;21.30;60.30;;;;;;5046637;28;20075;-72
2023/05/13 11:57:21;;;;;;;10.23;5.57;;;21.30;60.50;;;;;;5043307;28;20041;-73
2023/05/13 11:59:49;;;;;;;7.40;5.17;;;21.30;59.80;;;;;;5030732;28;20044;-72
2023/05/13 12:02:15;;;;;;;11.63;5.17;;;21.20;59.90;;;;;;5044964;28;20575;-73
2023/05/13 12:04:43;;;;;;;11.00;4.73;;;21.30;60.70;;;;;;5039073;28;20034;-73
2023/05/13 12:07:10;;;;;;;6.43;4.83;;;21.40;60.00;;;;;;5042562;28;20033;-73
2023/05/13 12:09:36;;;;;;;8.33;5.00;;;21.50;58.40;;;;;;5039875;28;20494;-73
2023/05/13 12:12:02;;;;;;;7.70;4.83;;;21.50;57.00;;;;;;5044026;28;20044;-73
2023/05/13 12:14:28;;;;;;;7.70;4.70;;;21.50;57.80;;;;;;5039623;28;20072;-73
2023/05/13 12:16:55;;;;;;;6.40;4.83;;;21.50;58.50;;;;;;5029584;28;20037;-73
2023/05/13 12:19:21;;;;;;;7.17;4.50;;;21.60;58.50;;;;;;5050631;28;20072;-73
2023/05/13 12:21:50;;;;;;;5.97;4.97;;;21.70;59.30;;;;;;5023913;28;20493;-73
2023/05/13 12:24:22;;;;;;;9.20;5.33;;;21.70;58.50;;;;;;5046020;28;20037;-73
2023/05/13 12:26:48;;;;;;;7.30;4.70;;;21.80;59.40;;;;;;5038638;28;20497;-73
2023/05/13 12:29:14;;;;;;;8.07;3.90;;;21.80;59.70;;;;;;5044794;28;20048;-73
2023/05/13 12:32:02;;;;;;;6.33;3.50;;;21.90;56.70;;;;;;5041274;28;20374;-73
2023/05/13 12:34:32;;;;;;;7.03;4.77;;;21.90;55.80;;;;;;5031131;28;20048;-73
2023/05/13 12:37:10;;;;;;;9.60;3.90;;;22.00;56.70;;;;;;5033642;28;20032;-73
2023/05/13 12:39:36;;;;;;;8.23;3.77;;;22.00;56.70;;;;;;5031108;28;20117;-73